Time;durP1;ratioP1;P1;durP2;ratioP2;P2;SDS_P1;SDS_P2;PMS_P1;PMS_P2;Temp;Humidity;BMP_temperature;BMP_pressure;BME280_temperature;BME280_humidity;BME280_pressure;Samples;Min_cycle;Max_cycle;Signal;HPM_P1;HPM_P2
2022/12/15 00:42:14;;;;;;;60.87;28.50;;;-4.50;1.00;;;;;;8373614;28;20196;-76
2022/12/15 00:50:52;;;;;;;77.10;34.43;;;-4.50;1.00;;;;;;8367395;28;20577;-80
2022/12/15 01:20:56;;;;;;;67.70;34.23;;;-4.30;99.90;;;;;;8369263;28;20232;-80
2022/12/15 01:24:57;;;;;;;69.00;35.07;;;-4.20;99.90;;;;;;8371966;28;20176;-77
2022/12/15 01:28:58;;;;;;;70.93;33.70;;;-4.20;99.90;;;;;;8368531;28;20181;-81
2022/12/15 01:32:59;;;;;;;72.07;33.83;;;-4.20;99.90;;;;;;8377151;28;20197;-77
2022/12/15 01:37:00;;;;;;;67.87;34.73;;;-4.20;99.90;;;;;;8369743;28;20292;-80
2022/12/15 01:41:05;;;;;;;68.90;33.33;;;-4.10;99.90;;;;;;8368688;28;20173;-79
2022/12/15 01:45:30;;;;;;;64.73;31.07;;;-4.10;99.90;;;;;;8364266;28;20307;-76
2022/12/15 01:49:31;;;;;;;72.27;33.63;;;-4.10;99.90;;;;;;8369826;28;20224;-78
2022/12/15 01:53:38;;;;;;;63.83;34.13;;;-4.00;99.90;;;;;;8370468;28;20189;-76
2022/12/15 01:57:39;;;;;;;73.77;33.03;;;-4.00;99.90;;;;;;8367455;28;20305;-79
2022/12/15 02:01:40;;;;;;;72.63;33.77;;;-4.00;99.90;;;;;;8366003;28;20437;-76
2022/12/15 02:05:41;;;;;;;71.20;33.13;;;-3.90;99.90;;;;;;8365302;28;20177;-80
2022/12/15 02:09:45;;;;;;;71.27;33.90;;;-3.90;99.90;;;;;;8369057;28;20189;-77
2022/12/15 02:14:02;;;;;;;68.27;31.20;;;-4.00;99.90;;;;;;8382472;28;20236;-79
2022/12/15 02:18:16;;;;;;;67.47;34.53;;;-4.00;99.90;;;;;;8369628;28;20355;-76
2022/12/15 02:22:53;;;;;;;55.33;29.63;;;-4.00;99.90;;;;;;8371471;28;20265;-76
2022/12/15 02:27:41;;;;;;;53.47;27.07;;;-4.00;99.90;;;;;;8384783;28;20411;-80
2022/12/15 02:32:13;;;;;;;52.07;27.47;;;-3.90;99.90;;;;;;8364804;28;20186;-79
2022/12/15 02:36:37;;;;;;;55.93;28.73;;;-3.80;99.90;;;;;;8368463;28;20288;-77
2022/12/15 02:40:39;;;;;;;55.03;29.07;;;-3.80;99.90;;;;;;8365480;28;20207;-76
2022/12/15 02:44:46;;;;;;;55.57;29.13;;;-3.70;99.90;;;;;;8370312;28;20185;-81
2022/12/15 02:49:15;;;;;;;54.73;27.47;;;-3.60;99.90;;;;;;8364915;28;20189;-80
2022/12/15 02:53:37;;;;;;;49.20;25.07;;;-3.60;95.30;;;;;;8367718;28;20284;-79
2022/12/15 02:57:59;;;;;;;58.70;29.07;;;-3.60;47.90;;;;;;8368488;28;20268;-77
2022/12/15 03:02:05;;;;;;;48.80;26.03;;;-3.50;20.20;;;;;;8371811;28;20220;-80
2022/12/15 03:06:07;;;;;;;52.63;27.43;;;-3.40;1.00;;;;;;8372394;28;20192;-81
2022/12/15 03:10:11;;;;;;;48.03;24.67;;;-3.40;1.00;;;;;;8376602;28;20189;-81
2022/12/15 03:14:12;;;;;;;50.27;26.77;;;-3.40;1.00;;;;;;8374229;28;20183;-81
2022/12/15 03:18:13;;;;;;;53.03;27.00;;;-3.40;1.00;;;;;;8366891;28;20209;-79
2022/12/15 03:22:14;;;;;;;49.27;26.60;;;-3.40;1.00;;;;;;8375983;28;20261;-76
2022/12/15 03:26:15;;;;;;;48.07;25.67;;;-3.50;1.00;;;;;;8369567;28;20483;-75
2022/12/15 03:30:16;;;;;;;47.77;24.33;;;-3.50;1.00;;;;;;8370677;28;20276;-77
2022/12/15 03:34:17;;;;;;;43.40;23.83;;;-3.40;1.00;;;;;;8375370;28;20209;-79
2022/12/15 03:38:18;;;;;;;47.63;24.97;;;-3.50;1.00;;;;;;8379938;28;20216;-76
2022/12/15 03:42:47;;;;;;;43.73;23.87;;;-3.50;1.00;;;;;;8373629;28;20183;-76
2022/12/15 03:46:39;;;;;;;43.80;23.40;;;-3.50;1.00;;;;;;8370447;28;20190;-81
2022/12/15 03:50:40;;;;;;;44.03;22.73;;;-3.50;1.00;;;;;;8378131;28;20219;-77
2022/12/15 03:54:41;;;;;;;40.03;23.60;;;-3.50;1.00;;;;;;8377683;28;20183;-78
2022/12/15 03:58:42;;;;;;;38.80;21.97;;;-3.50;1.00;;;;;;8371657;28;20303;-76
2022/12/15 04:02:44;;;;;;;42.37;21.43;;;-3.40;1.00;;;;;;8368509;28;20185;-76
2022/12/15 04:06:45;;;;;;;43.23;23.10;;;-3.40;1.00;;;;;;8387503;28;20181;-76
2022/12/15 04:10:45;;;;;;;41.93;22.30;;;-3.30;99.90;;;;;;8376095;28;20425;-79
2022/12/15 04:14:46;;;;;;;42.00;21.17;;;-3.30;99.90;;;;;;8368068;28;20186;-79
2022/12/15 04:20:07;;;;;;;39.57;21.20;;;-3.40;99.90;;;;;;8368391;28;20209;-76
2022/12/15 04:23:13;;;;;;;37.73;20.37;;;-3.40;99.90;;;;;;8365014;28;20190;-76
2022/12/15 05:32:09;;;;;;;41.13;20.73;;;-3.60;1.00;;;;;;8365223;28;20192;-76
2022/12/15 05:36:10;;;;;;;35.30;19.53;;;-3.60;1.00;;;;;;8366865;28;20197;-76
2022/12/15 05:40:11;;;;;;;38.47;20.00;;;-3.60;1.00;;;;;;8375908;28;20266;-77
2022/12/15 05:44:12;;;;;;;36.20;18.77;;;-3.70;1.00;;;;;;8363443;28;20183;-79
2022/12/15 05:48:13;;;;;;;37.90;19.83;;;-3.60;1.00;;;;;;8361248;28;20212;-77
2022/12/15 05:52:14;;;;;;;39.17;20.33;;;-3.60;1.00;;;;;;8366146;28;20182;-80
2022/12/15 05:56:15;;;;;;;35.10;19.13;;;-3.70;1.00;;;;;;8370512;28;20415;-80
2022/12/15 06:00:16;;;;;;;32.47;17.53;;;-3.70;1.00;;;;;;8369211;28;20217;-81
2022/12/15 06:04:17;;;;;;;39.27;18.83;;;-3.70;99.90;;;;;;8367112;28;20208;-80
2022/12/15 06:08:18;;;;;;;35.47;17.70;;;-3.70;99.90;;;;;;8371225;28;20193;-77
2022/12/15 06:12:19;;;;;;;31.93;17.23;;;-3.70;99.90;;;;;;8369343;28;20184;-76
2022/12/15 06:16:21;;;;;;;34.17;16.47;;;-3.70;99.90;;;;;;8366702;28;20184;-80
2022/12/15 06:20:22;;;;;;;28.57;15.20;;;-3.70;99.90;;;;;;8365468;28;20209;-76
2022/12/15 06:24:23;;;;;;;33.17;17.30;;;-3.70;99.90;;;;;;8365773;28;20247;-80
2022/12/15 06:28:24;;;;;;;27.63;16.70;;;-3.70;99.90;;;;;;8366756;28;20185;-80
2022/12/15 06:32:25;;;;;;;34.10;18.33;;;-3.80;99.90;;;;;;8374656;28;20192;-80
2022/12/15 06:36:27;;;;;;;30.53;16.57;;;-3.80;99.90;;;;;;8368738;28;20275;-80
2022/12/15 06:40:28;;;;;;;31.57;16.80;;;-3.80;99.90;;;;;;8368065;28;20209;-81
2022/12/15 06:44:29;;;;;;;30.73;17.07;;;-3.80;99.90;;;;;;8374140;28;20512;-80
2022/12/15 06:48:30;;;;;;;29.93;15.80;;;-3.80;99.90;;;;;;8367001;28;20209;-77
2022/12/15 06:52:31;;;;;;;30.37;14.80;;;-3.80;99.90;;;;;;8366659;28;20324;-80
2022/12/15 06:56:37;;;;;;;28.90;15.53;;;-3.80;99.90;;;;;;8367036;28;20189;-76
2022/12/15 07:00:40;;;;;;;26.60;14.37;;;-3.80;99.90;;;;;;8370801;28;20711;-81
2022/12/15 07:04:41;;;;;;;30.83;16.73;;;-3.80;99.90;;;;;;8379573;28;20177;-81
2022/12/15 07:08:46;;;;;;;26.80;15.00;;;-3.80;99.90;;;;;;8370994;28;20200;-78
2022/12/15 07:12:47;;;;;;;29.30;14.93;;;-3.80;99.90;;;;;;8373125;28;20181;-78
2022/12/15 07:16:48;;;;;;;27.37;15.77;;;-3.80;99.90;;;;;;8367915;28;20192;-79
2022/12/15 07:20:49;;;;;;;29.33;15.10;;;-3.90;85.40;;;;;;8370995;28;20192;-78
2022/12/15 07:24:50;;;;;;;29.53;15.13;;;-3.90;99.90;;;;;;8366976;28;20281;-80
2022/12/15 07:28:52;;;;;;;29.37;16.43;;;-3.90;99.90;;;;;;8368085;28;20181;-76
2022/12/15 07:32:53;;;;;;;27.10;15.03;;;-3.90;99.90;;;;;;8369661;28;20275;-80
2022/12/15 07:36:54;;;;;;;32.53;15.60;;;-3.90;99.90;;;;;;8363853;28;20185;-80
2022/12/15 07:40:58;;;;;;;28.93;15.93;;;-4.00;99.90;;;;;;8365549;28;20186;-77
2022/12/15 07:44:59;;;;;;;28.30;15.43;;;-3.90;99.90;;;;;;8381009;28;20181;-76
2022/12/15 07:49:00;;;;;;;27.07;13.60;;;-4.00;99.90;;;;;;8366190;28;20236;-81
2022/12/15 07:53:01;;;;;;;28.47;15.13;;;-4.00;99.90;;;;;;8377053;28;20189;-76
2022/12/15 07:57:02;;;;;;;27.40;15.17;;;-4.10;99.90;;;;;;8365396;28;20213;-77
2022/12/15 08:01:07;;;;;;;30.23;15.90;;;-4.00;99.90;;;;;;8374346;28;20177;-78
2022/12/15 08:05:09;;;;;;;27.97;15.27;;;-4.00;99.90;;;;;;8369282;28;20231;-80
2022/12/15 08:09:11;;;;;;;30.87;15.70;;;-3.90;97.80;;;;;;8374648;28;20196;-80
2022/12/15 08:13:12;;;;;;;26.40;14.57;;;-3.90;11.50;;;;;;8370899;28;20268;-76
2022/12/15 08:17:13;;;;;;;28.87;15.00;;;-4.00;1.00;;;;;;8377054;28;20205;-76
2022/12/15 08:21:14;;;;;;;29.03;14.90;;;-4.10;10.20;;;;;;8370993;28;20223;-77
2022/12/15 08:25:15;;;;;;;30.53;15.30;;;-4.10;39.70;;;;;;8372591;28;20208;-77
2022/12/15 08:29:16;;;;;;;25.17;14.23;;;-4.10;67.20;;;;;;8371692;28;20181;-80
2022/12/15 08:33:17;;;;;;;29.83;14.27;;;-4.10;74.10;;;;;;8375112;28;20243;-76
2022/12/15 08:37:18;;;;;;;30.30;15.67;;;-4.10;63.40;;;;;;8370151;28;20202;-80
2022/12/15 08:41:28;;;;;;;32.90;16.93;;;-4.10;31.10;;;;;;8372464;28;20177;-77
2022/12/15 08:45:29;;;;;;;31.80;15.73;;;-4.10;86.00;;;;;;8389413;28;20188;-81
2022/12/15 08:49:30;;;;;;;26.63;14.73;;;-3.90;45.90;;;;;;8370924;28;20232;-81
2022/12/15 08:53:31;;;;;;;26.53;15.10;;;-3.90;1.00;;;;;;8368629;28;20184;-76
2022/12/15 08:57:32;;;;;;;32.20;16.50;;;-3.80;1.00;;;;;;8373721;28;20204;-77
2022/12/15 09:01:37;;;;;;;27.50;16.30;;;-3.70;1.00;;;;;;8366938;28;20177;-77
2022/12/15 09:05:38;;;;;;;28.90;15.47;;;-3.70;1.00;;;;;;8368954;28;20179;-79
2022/12/15 09:09:39;;;;;;;30.90;16.23;;;-3.70;1.00;;;;;;8376488;28;20182;-81
2022/12/15 09:13:40;;;;;;;29.90;16.07;;;-3.60;1.00;;;;;;8370819;28;20216;-81
2022/12/15 09:17:41;;;;;;;34.57;16.67;;;-3.50;1.00;;;;;;8373559;28;20316;-77
2022/12/15 09:21:43;;;;;;;26.97;15.47;;;-3.40;1.00;;;;;;8371422;28;20182;-76
2022/12/15 09:25:45;;;;;;;30.10;16.30;;;-3.40;1.00;;;;;;8371788;28;20184;-78
2022/12/15 09:29:46;;;;;;;27.03;15.20;;;-3.30;1.00;;;;;;8375302;28;20579;-80
2022/12/15 09:33:51;;;;;;;33.83;16.33;;;-3.20;99.90;;;;;;8370898;28;20202;-77
2022/12/15 09:37:52;;;;;;;27.33;15.50;;;-3.10;99.90;;;;;;8385567;28;20205;-80
2022/12/15 09:41:57;;;;;;;24.07;13.63;;;-3.10;99.90;;;;;;8373457;28;20280;-77
2022/12/15 09:46:07;;;;;;;24.40;14.27;;;-3.00;99.90;;;;;;8369493;28;20264;-81
2022/12/15 09:50:14;;;;;;;22.83;13.03;;;-2.90;99.90;;;;;;8367767;28;20186;-81
2022/12/15 09:54:15;;;;;;;28.07;14.10;;;-2.80;99.90;;;;;;8371567;28;20178;-81
2022/12/15 09:58:39;;;;;;;24.80;14.57;;;-2.70;99.90;;;;;;8369782;28;20207;-77
2022/12/15 10:02:58;;;;;;;24.00;13.50;;;-2.70;99.90;;;;;;8372077;28;20254;-79
2022/12/15 10:07:45;;;;;;;22.43;12.93;;;-2.50;99.90;;;;;;8375392;28;20265;-81
2022/12/15 10:12:01;;;;;;;25.10;13.43;;;-2.40;99.90;;;;;;8376651;28;20174;-81
2022/12/15 10:16:12;;;;;;;27.23;14.23;;;-2.60;99.90;;;;;;8372035;28;20198;-78
2022/12/15 10:20:23;;;;;;;25.50;14.03;;;-2.60;99.90;;;;;;8370804;28;20200;-77
2022/12/15 10:24:30;;;;;;;22.17;12.47;;;-2.40;99.90;;;;;;8366418;28;20409;-77
2022/12/15 10:29:08;;;;;;;23.07;13.43;;;-2.40;99.90;;;;;;8368157;28;20193;-77
2022/12/15 10:33:34;;;;;;;25.63;12.30;;;-2.20;99.90;;;;;;8367055;28;20206;-77
2022/12/15 10:37:35;;;;;;;24.13;13.03;;;-2.20;99.90;;;;;;8380785;28;20206;-80
2022/12/15 10:41:36;;;;;;;22.60;13.10;;;-2.30;99.90;;;;;;8368687;28;20267;-81
2022/12/15 10:45:38;;;;;;;23.13;13.43;;;-2.40;99.90;;;;;;8366264;28;20186;-77
2022/12/15 10:49:39;;;;;;;23.03;12.70;;;-2.30;99.90;;;;;;8375220;28;20182;-82
2022/12/15 10:53:52;;;;;;;22.60;12.93;;;-2.20;99.90;;;;;;8368798;28;20195;-81
2022/12/15 10:58:01;;;;;;;25.63;13.03;;;-2.00;99.90;;;;;;8372818;28;20207;-80
2022/12/15 11:02:22;;;;;;;20.47;11.90;;;-2.20;99.90;;;;;;8366107;28;20184;-77
2022/12/15 11:06:28;;;;;;;21.73;11.80;;;-2.30;99.90;;;;;;8365728;28;20187;-81
2022/12/15 11:14:53;;;;;;;21.43;12.63;;;-2.40;99.90;;;;;;8363472;28;20194;-81
2022/12/15 11:19:03;;;;;;;20.73;10.53;;;-2.50;99.90;;;;;;8365300;28;20231;-81
2022/12/15 11:23:28;;;;;;;19.77;10.97;;;-2.60;99.90;;;;;;8367250;28;20485;-80
2022/12/15 11:27:39;;;;;;;18.83;11.27;;;-2.70;99.90;;;;;;8392627;28;20517;-80
2022/12/15 11:31:43;;;;;;;19.63;10.77;;;-2.80;99.90;;;;;;8378085;28;20181;-79
2022/12/15 11:36:09;;;;;;;23.40;11.53;;;-2.70;99.90;;;;;;8377714;28;20247;-78
2022/12/15 11:40:33;;;;;;;17.53;10.53;;;-2.50;99.90;;;;;;8377609;28;20210;-77
2022/12/15 11:44:57;;;;;;;22.57;11.77;;;-2.20;99.90;;;;;;8374009;28;20323;-77
2022/12/15 11:49:22;;;;;;;22.60;10.67;;;-2.00;99.90;;;;;;8370808;28;20190;-81
2022/12/15 11:53:53;;;;;;;20.17;11.27;;;-1.90;99.90;;;;;;8380670;28;20498;-77
2022/12/15 11:58:03;;;;;;;20.33;11.07;;;-1.90;99.90;;;;;;8368508;28;20212;-77
2022/12/15 12:02:14;;;;;;;17.70;10.53;;;-1.70;99.90;;;;;;8370857;28;20240;-77
2022/12/15 12:06:40;;;;;;;16.37;9.87;;;-1.60;88.90;;;;;;8384842;28;20203;-77
2022/12/15 12:11:03;;;;;;;16.70;9.90;;;-1.70;56.70;;;;;;8372317;28;20226;-80
2022/12/15 12:15:13;;;;;;;15.77;9.37;;;-1.70;66.60;;;;;;8369868;28;20240;-77
2022/12/15 12:19:42;;;;;;;20.07;10.23;;;-1.70;71.30;;;;;;8378811;28;20200;-80
2022/12/15 12:23:55;;;;;;;16.47;8.90;;;-1.70;65.00;;;;;;8372913;28;20200;-78
2022/12/15 12:28:26;;;;;;;19.00;10.20;;;-1.60;56.70;;;;;;8368429;28;20274;-78
2022/12/15 12:32:52;;;;;;;18.83;9.60;;;-1.60;45.90;;;;;;8380146;28;20187;-81
2022/12/15 12:36:56;;;;;;;17.03;9.60;;;-1.60;50.10;;;;;;8372675;28;20278;-80
2022/12/15 12:41:15;;;;;;;16.13;9.43;;;-1.60;42.20;;;;;;8383552;28;20185;-77
2022/12/15 12:45:18;;;;;;;17.13;9.97;;;-1.60;34.20;;;;;;8377972;28;20196;-77
2022/12/15 12:49:35;;;;;;;18.97;10.40;;;-1.70;38.50;;;;;;8370987;28;20183;-77
2022/12/15 12:53:36;;;;;;;19.73;10.17;;;-1.80;38.90;;;;;;8372852;28;20194;-77
2022/12/15 12:57:41;;;;;;;16.30;9.60;;;-1.90;45.50;;;;;;8375221;28;20298;-81
2022/12/15 13:01:42;;;;;;;17.27;10.17;;;-1.90;43.60;;;;;;8370797;28;20262;-76
2022/12/15 13:05:45;;;;;;;17.57;9.63;;;-1.90;49.00;;;;;;8371815;28;20182;-77
2022/12/15 13:10:06;;;;;;;15.00;8.63;;;-2.00;56.10;;;;;;8368301;28;20197;-77
2022/12/15 13:14:32;;;;;;;21.03;11.13;;;-2.20;58.30;;;;;;8369922;28;20189;-76
2022/12/15 13:19:03;;;;;;;18.40;11.17;;;-2.30;69.40;;;;;;8361940;28;20252;-77
2022/12/15 13:23:22;;;;;;;17.13;8.97;;;-2.40;80.40;;;;;;8370411;28;20175;-78
2022/12/15 13:27:25;;;;;;;18.20;9.93;;;-2.50;99.90;;;;;;8377507;28;20186;-80
2022/12/15 13:31:29;;;;;;;20.27;10.80;;;-2.60;99.80;;;;;;8365228;28;20598;-77
2022/12/15 13:35:33;;;;;;;18.47;10.13;;;-2.70;99.90;;;;;;8367487;28;20202;-78
2022/12/15 13:39:49;;;;;;;16.17;8.83;;;-2.80;99.90;;;;;;8364879;28;20413;-77
2022/12/15 13:43:53;;;;;;;13.17;7.73;;;-2.90;99.90;;;;;;8363142;28;20224;-81
2022/12/15 13:47:55;;;;;;;14.33;7.63;;;-3.10;99.90;;;;;;8373286;28;20219;-81
2022/12/15 13:52:01;;;;;;;14.67;7.90;;;-3.20;99.90;;;;;;8365917;28;20240;-80
2022/12/15 13:56:17;;;;;;;12.30;7.17;;;-3.30;99.90;;;;;;8365625;28;20174;-80
2022/12/15 14:00:18;;;;;;;12.17;7.07;;;-3.20;99.90;;;;;;8362793;28;20504;-79
2022/12/15 14:04:20;;;;;;;13.40;7.87;;;-3.20;99.90;;;;;;8370475;28;20185;-78
2022/12/15 14:08:23;;;;;;;16.87;7.83;;;-3.20;99.90;;;;;;8368676;28;20209;-79
2022/12/15 14:12:24;;;;;;;12.90;7.20;;;-3.30;99.90;;;;;;8365532;28;20217;-78
2022/12/15 14:16:26;;;;;;;13.13;7.53;;;-3.40;99.90;;;;;;8368214;28;20192;-80
2022/12/15 14:20:33;;;;;;;11.97;6.93;;;-3.50;99.90;;;;;;8375023;28;20236;-77
2022/12/15 14:24:44;;;;;;;13.27;7.60;;;-3.60;99.90;;;;;;8371831;28;20194;-80
2022/12/15 14:28:46;;;;;;;11.77;6.33;;;-3.90;99.90;;;;;;8369717;28;20170;-81
2022/12/15 14:32:59;;;;;;;11.80;7.07;;;-4.10;99.90;;;;;;8352218;28;20202;-80
2022/12/15 14:37:04;;;;;;;12.57;7.03;;;-4.40;99.90;;;;;;8370983;28;20180;-76
2022/12/15 14:41:09;;;;;;;14.03;7.00;;;-4.60;99.90;;;;;;8368307;28;20174;-80
2022/12/15 14:45:19;;;;;;;11.50;7.30;;;-4.80;99.90;;;;;;8367349;28;20211;-77
2022/12/15 14:49:28;;;;;;;10.90;7.07;;;-5.00;99.90;;;;;;8369290;28;20190;-80
2022/12/15 14:53:33;;;;;;;12.00;6.50;;;-5.20;99.90;;;;;;8375607;28;20173;-78
2022/12/15 14:57:44;;;;;;;11.70;7.13;;;-5.40;99.90;;;;;;8364694;28;20547;-77
2022/12/15 15:02:11;;;;;;;15.10;8.23;;;-5.60;99.90;;;;;;8376290;28;20181;-78
2022/12/15 15:06:12;;;;;;;31.67;14.87;;;-5.80;99.90;;;;;;8370057;28;20188;-80
2022/12/15 15:10:24;;;;;;;32.20;13.30;;;-5.90;99.90;;;;;;8374196;28;20211;-78
2022/12/15 15:14:28;;;;;;;24.10;11.37;;;-6.00;99.90;;;;;;8369550;28;20234;-77
2022/12/15 15:18:30;;;;;;;16.70;8.70;;;-6.20;99.90;;;;;;8389371;28;20247;-78
2022/12/15 15:22:44;;;;;;;14.40;7.57;;;-6.30;1.00;;;;;;8376514;28;20183;-80
2022/12/15 15:26:45;;;;;;;13.27;6.73;;;-6.40;1.00;;;;;;8378722;28;20170;-82
2022/12/15 15:31:21;;;;;;;13.93;7.87;;;-6.60;1.00;;;;;;8373962;28;20207;-81
2022/12/15 15:35:25;;;;;;;13.63;6.73;;;-6.80;1.00;;;;;;8363195;28;20299;-81
2022/12/15 15:39:26;;;;;;;14.67;7.30;;;-6.90;1.00;;;;;;8376816;28;20565;-81
2022/12/15 15:43:28;;;;;;;16.43;8.40;;;-7.00;1.00;;;;;;8370072;28;20181;-78
2022/12/15 15:47:29;;;;;;;15.40;8.53;;;-7.10;1.00;;;;;;8369758;28;20190;-78
2022/12/15 15:51:31;;;;;;;16.57;8.47;;;-7.20;1.00;;;;;;8374751;28;20235;-81
2022/12/15 15:55:33;;;;;;;12.90;6.93;;;-7.30;1.00;;;;;;8374696;28;20274;-77
2022/12/15 15:59:35;;;;;;;12.67;6.53;;;-7.50;1.00;;;;;;8370613;28;20217;-79
2022/12/15 16:03:37;;;;;;;13.67;7.23;;;-7.60;1.00;;;;;;8371792;28;20605;-77
2022/12/15 16:07:39;;;;;;;17.40;8.70;;;-7.60;22.00;;;;;;8369516;28;20282;-80
2022/12/15 16:11:40;;;;;;;23.70;11.67;;;-7.70;27.00;;;;;;8371970;28;20185;-79
2022/12/15 16:15:41;;;;;;;40.40;18.87;;;-7.80;32.90;;;;;;8373600;28;20220;-80
2022/12/15 16:19:42;;;;;;;34.73;16.07;;;-7.90;83.40;;;;;;8364844;28;20216;-77
2022/12/15 16:23:47;;;;;;;37.97;15.70;;;-8.00;99.90;;;;;;8376887;28;20373;-77
2022/12/15 16:27:48;;;;;;;26.70;13.33;;;-8.10;99.90;;;;;;8374704;28;20213;-76
2022/12/15 16:31:49;;;;;;;19.20;10.63;;;-8.20;99.90;;;;;;8389372;28;20265;-77
2022/12/15 16:35:51;;;;;;;38.20;16.97;;;-8.30;99.90;;;;;;8372373;28;20202;-78
2022/12/15 16:39:51;;;;;;;30.33;14.37;;;-8.40;99.90;;;;;;8370810;28;20216;-78
2022/12/15 16:43:53;;;;;;;34.30;13.47;;;-8.40;99.90;;;;;;8373750;28;20166;-78
2022/12/15 16:47:54;;;;;;;24.63;11.33;;;-8.50;99.90;;;;;;8371376;28;20182;-77
2022/12/15 16:51:55;;;;;;;28.07;13.17;;;-8.60;99.90;;;;;;8369975;28;20511;-76
2022/12/15 16:56:03;;;;;;;24.87;12.90;;;-8.60;99.90;;;;;;8371005;28;20177;-77
2022/12/15 17:00:18;;;;;;;24.37;11.77;;;-8.60;99.90;;;;;;8373076;28;20216;-76
2022/12/15 17:04:20;;;;;;;29.57;13.10;;;-8.70;99.90;;;;;;8370997;28;20202;-78
2022/12/15 17:08:31;;;;;;;26.63;10.97;;;-8.80;99.90;;;;;;8372866;28;20299;-78
2022/12/15 17:12:32;;;;;;;22.17;11.70;;;-8.90;99.90;;;;;;8376210;28;20185;-78
2022/12/15 17:16:33;;;;;;;28.23;12.50;;;-9.00;99.90;;;;;;8372399;28;20186;-80
2022/12/15 17:20:34;;;;;;;27.13;11.73;;;-9.10;99.90;;;;;;8369563;28;20285;-76
2022/12/15 17:24:35;;;;;;;39.07;14.13;;;-9.20;99.90;;;;;;8369658;28;20188;-77
2022/12/15 17:28:36;;;;;;;33.60;12.37;;;-9.20;1.00;;;;;;8372274;28;20213;-80
2022/12/15 17:32:36;;;;;;;36.87;15.20;;;-9.20;1.00;;;;;;8366278;28;20189;-77
2022/12/15 17:36:37;;;;;;;47.07;17.83;;;-9.30;1.00;;;;;;8372345;28;20189;-77
2022/12/15 17:40:39;;;;;;;42.80;18.13;;;-9.30;1.00;;;;;;8369571;28;20204;-77
2022/12/15 17:44:40;;;;;;;41.77;17.37;;;-9.30;8.40;;;;;;8370283;28;20282;-79
2022/12/15 17:48:41;;;;;;;40.97;16.20;;;-9.30;15.50;;;;;;8367509;28;20194;-79
2022/12/15 17:52:47;;;;;;;40.73;16.00;;;-9.40;1.00;;;;;;8364500;28;20218;-80
2022/12/15 17:56:50;;;;;;;34.13;16.57;;;-9.40;1.00;;;;;;8366484;28;20217;-80
2022/12/15 18:00:53;;;;;;;35.43;16.43;;;-9.40;1.00;;;;;;8369692;28;20265;-81
2022/12/15 18:04:54;;;;;;;44.17;17.93;;;-9.40;43.00;;;;;;8370891;28;20184;-80
2022/12/15 18:08:55;;;;;;;47.30;18.87;;;-9.30;99.90;;;;;;8366453;28;20216;-78
2022/12/15 18:12:56;;;;;;;40.60;17.73;;;-9.30;99.90;;;;;;8366738;28;20178;-77
2022/12/15 18:16:57;;;;;;;41.63;17.93;;;-9.30;99.90;;;;;;8373274;28;20188;-78
2022/12/15 18:21:02;;;;;;;36.47;16.90;;;-9.30;90.30;;;;;;8365236;28;20205;-79
2022/12/15 18:25:03;;;;;;;36.60;16.20;;;-9.40;1.90;;;;;;8372453;28;20186;-81
2022/12/15 18:29:16;;;;;;;39.83;18.97;;;-9.50;12.50;;;;;;8369499;28;20389;-80
2022/12/15 18:33:18;;;;;;;62.23;25.03;;;-9.40;99.90;;;;;;8373654;28;20205;-81
2022/12/15 18:37:21;;;;;;;52.33;22.93;;;-9.30;99.90;;;;;;8366202;28;20188;-80
2022/12/15 18:41:22;;;;;;;42.80;19.30;;;-9.30;99.90;;;;;;8364738;28;20281;-81
2022/12/15 18:45:26;;;;;;;51.47;19.60;;;-9.40;99.90;;;;;;8368774;28;20192;-79
2022/12/15 18:49:26;;;;;;;47.43;21.27;;;-9.50;99.90;;;;;;8367548;28;20186;-76
2022/12/15 18:53:33;;;;;;;62.97;21.50;;;-9.50;1.00;;;;;;8373357;28;20526;-79
2022/12/15 18:57:35;;;;;;;56.70;20.17;;;-9.50;99.90;;;;;;8371542;28;20209;-79
2022/12/15 19:01:36;;;;;;;52.03;21.00;;;-9.50;99.90;;;;;;8372694;28;20235;-77
2022/12/15 19:05:37;;;;;;;58.17;22.33;;;-9.60;99.90;;;;;;8372749;28;20181;-78
2022/12/15 19:09:39;;;;;;;44.90;19.43;;;-9.60;99.90;;;;;;8364501;28;20298;-78
2022/12/15 19:13:40;;;;;;;46.00;18.53;;;-9.70;99.90;;;;;;8369054;28;20266;-80
2022/12/15 19:26:20;;;;;;;65.60;22.03;;;-9.70;1.00;;;;;;8364760;28;20201;-80
2022/12/15 19:30:22;;;;;;;69.67;24.57;;;-9.50;99.90;;;;;;8367486;28;20189;-81
2022/12/15 19:34:22;;;;;;;58.97;19.90;;;-9.40;1.00;;;;;;8368269;28;20620;-77
2022/12/15 19:38:30;;;;;;;42.50;19.03;;;-9.30;99.90;;;;;;8370960;28;20228;-81
2022/12/15 19:42:36;;;;;;;39.63;16.93;;;-9.10;99.90;;;;;;8366390;28;20181;-80
2022/12/15 19:46:37;;;;;;;36.77;17.77;;;-9.00;99.90;;;;;;8372707;28;20178;-77
2022/12/15 19:50:41;;;;;;;38.10;17.27;;;-8.80;1.00;;;;;;8376705;28;20196;-80
2022/12/15 19:54:43;;;;;;;45.60;18.77;;;-8.70;1.00;;;;;;8370923;28;20193;-76
2022/12/15 19:58:44;;;;;;;61.30;24.00;;;-8.60;1.00;;;;;;8375061;28;20209;-80
2022/12/15 20:02:46;;;;;;;94.87;35.63;;;-8.50;1.00;;;;;;8366803;28;20272;-78
2022/12/15 20:06:47;;;;;;;178.70;57.60;;;-8.30;1.00;;;;;;8375292;28;20189;-80
2022/12/15 20:10:49;;;;;;;165.10;59.30;;;-8.30;99.90;;;;;;8373101;28;20190;-80
2022/12/15 20:14:50;;;;;;;125.40;47.53;;;-8.20;91.70;;;;;;8359325;28;20189;-78
2022/12/15 20:18:53;;;;;;;118.67;45.97;;;-8.20;99.90;;;;;;8375156;28;20258;-77
2022/12/15 20:22:58;;;;;;;140.73;48.87;;;-8.10;99.90;;;;;;8372069;28;20227;-78
2022/12/15 20:27:00;;;;;;;146.70;55.57;;;-8.00;99.90;;;;;;8391148;28;20183;-80
2022/12/15 20:31:01;;;;;;;164.83;58.83;;;-8.00;94.10;;;;;;8376942;28;20194;-77
2022/12/15 20:35:02;;;;;;;142.97;57.00;;;-7.90;99.90;;;;;;8372595;28;20206;-81
2022/12/15 20:39:03;;;;;;;153.80;62.83;;;-7.80;92.60;;;;;;8369999;28;20287;-80
2022/12/15 20:43:16;;;;;;;131.33;53.63;;;-7.80;99.90;;;;;;8371419;28;20182;-80
2022/12/15 20:47:23;;;;;;;137.20;50.30;;;-7.70;99.90;;;;;;8372438;28;20182;-78
2022/12/15 20:51:30;;;;;;;124.20;48.10;;;-7.60;95.40;;;;;;8368468;28;20217;-80
2022/12/15 20:55:31;;;;;;;133.83;51.53;;;-7.60;26.80;;;;;;8373470;28;20279;-79
2022/12/15 20:59:32;;;;;;;162.30;61.87;;;-7.50;1.00;;;;;;8369531;28;20217;-78
2022/12/15 21:03:35;;;;;;;169.77;63.23;;;-7.40;1.00;;;;;;8374549;28;20176;-80
2022/12/15 21:07:36;;;;;;;156.60;56.80;;;-7.40;1.00;;;;;;8368788;28;20249;-80
2022/12/15 21:11:38;;;;;;;144.07;53.83;;;-7.30;1.00;;;;;;8377723;28;20212;-78
2022/12/15 21:15:39;;;;;;;109.23;43.90;;;-7.20;1.00;;;;;;8371138;28;20471;-78
2022/12/15 21:19:40;;;;;;;220.07;70.70;;;-7.20;1.00;;;;;;8375917;28;20200;-77
2022/12/15 21:23:41;;;;;;;221.03;78.57;;;-7.10;1.00;;;;;;8376439;28;20176;-80
2022/12/15 21:27:42;;;;;;;232.23;90.70;;;-7.00;99.90;;;;;;8369806;28;20560;-80
2022/12/15 21:31:44;;;;;;;256.93;92.50;;;-6.90;99.90;;;;;;8370941;28;21256;-82
2022/12/15 21:35:47;;;;;;;236.67;85.97;;;-6.90;99.90;;;;;;8359783;28;20285;-78
2022/12/15 21:39:48;;;;;;;211.37;80.27;;;-6.80;99.90;;;;;;8360407;28;20217;-76
2022/12/15 21:43:49;;;;;;;151.33;60.20;;;-6.80;99.90;;;;;;8370130;28;20574;-81
2022/12/15 21:52:10;;;;;;;121.27;46.17;;;-6.70;99.90;;;;;;8369005;28;20205;-79
2022/12/15 21:56:17;;;;;;;103.63;42.70;;;-6.70;99.90;;;;;;8380336;28;20351;-79
2022/12/15 22:00:20;;;;;;;109.57;43.07;;;-6.70;99.90;;;;;;8365207;28;20217;-77
2022/12/15 22:04:25;;;;;;;110.07;39.47;;;-6.60;99.90;;;;;;8383690;28;20624;-77
2022/12/15 22:08:26;;;;;;;111.37;40.90;;;-6.60;99.90;;;;;;8371065;28;20197;-76
2022/12/15 22:12:27;;;;;;;111.37;43.00;;;-6.60;99.90;;;;;;8370026;28;20189;-77
2022/12/15 22:16:28;;;;;;;131.33;48.00;;;-6.50;99.90;;;;;;8367918;28;20442;-80
2022/12/15 22:20:29;;;;;;;178.93;66.83;;;-6.50;99.90;;;;;;8368088;28;20213;-76
2022/12/15 22:24:30;;;;;;;172.70;63.40;;;-6.50;99.90;;;;;;8364813;28;20177;-76
2022/12/15 22:28:31;;;;;;;159.57;55.40;;;-6.50;99.90;;;;;;8366998;28;20191;-80
2022/12/15 22:32:32;;;;;;;116.87;46.90;;;-6.40;99.90;;;;;;8369390;28;20184;-77
2022/12/15 22:36:33;;;;;;;82.37;34.73;;;-6.40;99.90;;;;;;8380519;28;20191;-77
2022/12/15 22:40:34;;;;;;;74.83;31.33;;;-6.40;99.90;;;;;;8362692;28;20231;-77
2022/12/15 22:44:36;;;;;;;64.60;29.03;;;-6.40;99.90;;;;;;8369416;28;20185;-77
2022/12/15 22:48:40;;;;;;;86.27;36.37;;;-6.40;99.90;;;;;;8372009;28;20189;-77
2022/12/15 22:52:41;;;;;;;107.77;42.33;;;-6.40;99.90;;;;;;8375822;28;20288;-81
2022/12/15 22:56:42;;;;;;;128.40;49.17;;;-6.30;99.90;;;;;;8367124;28;20208;-80
2022/12/15 23:00:43;;;;;;;113.37;48.67;;;-6.30;99.90;;;;;;8380923;28;20209;-78
2022/12/15 23:04:44;;;;;;;100.93;41.67;;;-6.20;99.90;;;;;;8366560;28;20245;-78
2022/12/15 23:08:45;;;;;;;95.10;39.23;;;-6.20;99.90;;;;;;8363453;28;20343;-79
2022/12/15 23:12:46;;;;;;;96.83;37.63;;;-6.20;99.90;;;;;;8374876;28;20172;-80
2022/12/15 23:16:47;;;;;;;71.90;31.97;;;-6.20;99.90;;;;;;8371166;28;20306;-81
2022/12/15 23:20:48;;;;;;;62.07;27.60;;;-6.20;99.90;;;;;;8374315;28;20204;-78
2022/12/15 23:24:48;;;;;;;66.10;27.07;;;-6.20;99.90;;;;;;8377549;28;20274;-80